sensor_id;sensor_type;location;lat;lon;timestamp;pressure;altitude;pressure_sealevel;temperature;humidity
50696;BME280;36665;51.786;21.594;2023-08-17T00:02:36;97088.89;;;21.98;55.04
50696;BME280;36665;51.786;21.594;2023-08-17T00:10:59;97092.02;;;21.99;55.19
50696;BME280;36665;51.786;21.594;2023-08-17T00:19:22;97114.15;;;22.03;55.25
50696;BME280;36665;51.786;21.594;2023-08-17T00:27:46;97125.83;;;22.05;55.26
50696;BME280;36665;51.786;21.594;2023-08-17T00:36:12;97118.77;;;22.03;55.41
50696;BME280;36665;51.786;21.594;2023-08-17T00:44:35;97087.13;;;21.95;55.41
50696;BME280;36665;51.786;21.594;2023-08-17T00:52:58;97060.48;;;21.88;55.36
50696;BME280;36665;51.786;21.594;2023-08-17T01:01:23;97033.83;;;21.81;55.49
50696;BME280;36665;51.786;21.594;2023-08-17T01:09:46;96986.08;;;21.69;55.59
50696;BME280;36665;51.786;21.594;2023-08-17T01:18:29;96943.59;;;21.58;55.55
50696;BME280;36665;51.786;21.594;2023-08-17T01:26:55;96915.14;;;21.50;55.64
50696;BME280;36665;51.786;21.594;2023-08-17T01:35:31;96896.74;;;21.46;55.82
50696;BME280;36665;51.786;21.594;2023-08-17T01:43:58;96879.86;;;21.41;55.69
50696;BME280;36665;51.786;21.594;2023-08-17T01:52:24;96868.81;;;21.38;55.83
50696;BME280;36665;51.786;21.594;2023-08-17T02:00:49;96875.88;;;21.39;55.80
50696;BME280;36665;51.786;21.594;2023-08-17T02:09:12;96898.02;;;21.45;55.74
50696;BME280;36665;51.786;21.594;2023-08-17T02:17:35;96921.81;;;21.50;55.96
50696;BME280;36665;51.786;21.594;2023-08-17T02:25:58;96942.20;;;21.54;56.07
50696;BME280;36665;51.786;21.594;2023-08-17T02:34:20;96967.70;;;21.60;56.21
50696;BME280;36665;51.786;21.594;2023-08-17T02:42:43;97000.38;;;21.68;56.20
50696;BME280;36665;51.786;21.594;2023-08-17T02:51:06;97026.60;;;21.74;56.28
50696;BME280;36665;51.786;21.594;2023-08-17T02:59:29;97020.74;;;21.73;56.30
50696;BME280;36665;51.786;21.594;2023-08-17T03:07:54;97007.10;;;21.67;56.45
50696;BME280;36665;51.786;21.594;2023-08-17T03:16:17;96996.36;;;21.65;56.39
50696;BME280;36665;51.786;21.594;2023-08-17T03:24:40;97022.75;;;21.71;56.49
50696;BME280;36665;51.786;21.594;2023-08-17T03:33:04;97042.49;;;21.74;56.61
50696;BME280;36665;51.786;21.594;2023-08-17T03:41:27;97042.55;;;21.74;56.60
50696;BME280;36665;51.786;21.594;2023-08-17T03:49:51;97024.36;;;21.69;56.78
50696;BME280;36665;51.786;21.594;2023-08-17T03:58:15;97011.58;;;21.66;56.92
50696;BME280;36665;51.786;21.594;2023-08-17T04:06:39;97033.92;;;21.71;57.06
50696;BME280;36665;51.786;21.594;2023-08-17T04:15:04;97074.86;;;21.80;56.96
50696;BME280;36665;51.786;21.594;2023-08-17T04:23:27;97115.50;;;21.88;57.12
50696;BME280;36665;51.786;21.594;2023-08-17T04:31:50;97158.44;;;21.99;57.18
50696;BME280;36665;51.786;21.594;2023-08-17T04:40:14;97246.70;;;22.20;57.08
50696;BME280;36665;51.786;21.594;2023-08-17T04:48:37;97396.33;;;22.54;57.29
50696;BME280;36665;51.786;21.594;2023-08-17T04:57:00;97537.11;;;22.87;57.53
50696;BME280;36665;51.786;21.594;2023-08-17T05:05:24;97656.35;;;23.15;57.48
50696;BME280;36665;51.786;21.594;2023-08-17T05:13:48;97776.34;;;23.42;57.83
50696;BME280;36665;51.786;21.594;2023-08-17T05:22:12;97902.31;;;23.71;57.87
50696;BME280;36665;51.786;21.594;2023-08-17T05:30:36;97930.58;;;23.77;58.07
50696;BME280;36665;51.786;21.594;2023-08-17T05:38:59;97936.48;;;23.77;58.11
50696;BME280;36665;51.786;21.594;2023-08-17T05:47:22;97964.46;;;23.83;58.24
50696;BME280;36665;51.786;21.594;2023-08-17T05:55:45;98042.55;;;24.01;58.03
50696;BME280;36665;51.786;21.594;2023-08-17T06:04:08;98144.23;;;24.23;58.22
50696;BME280;36665;51.786;21.594;2023-08-17T06:12:32;98240.98;;;24.45;58.11
50696;BME280;36665;51.786;21.594;2023-08-17T06:20:54;98519.05;;;25.08;58.45
50696;BME280;36665;51.786;21.594;2023-08-17T06:29:17;98749.86;;;25.59;58.52
50696;BME280;36665;51.786;21.594;2023-08-17T06:37:40;99038.89;;;26.24;58.77
50696;BME280;36665;51.786;21.594;2023-08-17T06:46:03;99457.11;;;27.17;58.71
50696;BME280;36665;51.786;21.594;2023-08-17T06:54:26;99786.01;;;27.87;59.01
50696;BME280;36665;51.786;21.594;2023-08-17T07:02:50;100151.71;;;28.67;59.26
50696;BME280;36665;51.786;21.594;2023-08-17T07:11:18;100418.14;;;29.22;59.43
50696;BME280;36665;51.786;21.594;2023-08-17T07:19:42;100618.04;;;29.63;59.26
50696;BME280;36665;51.786;21.594;2023-08-17T07:28:08;100783.70;;;29.98;59.66
50696;BME280;36665;51.786;21.594;2023-08-17T07:36:31;100854.58;;;30.11;59.65
50696;BME280;36665;51.786;21.594;2023-08-17T07:44:54;100757.06;;;29.89;59.69
50696;BME280;36665;51.786;21.594;2023-08-17T07:53:19;100619.80;;;29.59;59.81
50696;BME280;36665;51.786;21.594;2023-08-17T08:01:42;100494.25;;;29.31;59.71
50696;BME280;36665;51.786;21.594;2023-08-17T08:10:06;100378.84;;;29.07;59.62
50696;BME280;36665;51.786;21.594;2023-08-17T08:18:29;100437.63;;;29.19;59.58
50696;BME280;36665;51.786;21.594;2023-08-17T08:26:51;100641.11;;;29.62;59.82
50696;BME280;36665;51.786;21.594;2023-08-17T08:35:15;100815.98;;;29.98;59.77
50696;BME280;36665;51.786;21.594;2023-08-17T08:43:38;100873.80;;;30.09;59.75
50696;BME280;36665;51.786;21.594;2023-08-17T08:52:02;101000.17;;;30.36;59.70
50696;BME280;36665;51.786;21.594;2023-08-17T09:00:28;101096.30;;;30.57;59.78
50696;BME280;36665;51.786;21.594;2023-08-17T09:08:51;101143.33;;;30.66;60.12
50696;BME280;36665;51.786;21.594;2023-08-17T09:17:22;101179.88;;;30.73;59.76
50696;BME280;36665;51.786;21.594;2023-08-17T09:25:46;101234.36;;;30.85;59.96
50696;BME280;36665;51.786;21.594;2023-08-17T09:34:10;101449.08;;;31.29;59.87
50696;BME280;36665;51.786;21.594;2023-08-17T09:42:36;101604.16;;;31.61;59.87
50696;BME280;36665;51.786;21.594;2023-08-17T09:51:01;101808.85;;;32.03;59.88
50696;BME280;36665;51.786;21.594;2023-08-17T09:59:25;102062.84;;;32.56;59.88
50696;BME280;36665;51.786;21.594;2023-08-17T10:07:53;102221.66;;;32.88;59.92
50696;BME280;36665;51.786;21.594;2023-08-17T10:25:06;102442.10;;;33.33;59.89
50696;BME280;36665;51.786;21.594;2023-08-17T10:33:32;102410.13;;;33.26;59.92
50696;BME280;36665;51.786;21.594;2023-08-17T10:41:56;102356.33;;;33.15;59.89
50696;BME280;36665;51.786;21.594;2023-08-17T10:50:24;102239.65;;;32.93;59.74
50696;BME280;36665;51.786;21.594;2023-08-17T10:58:51;102050.62;;;32.55;59.50
50696;BME280;36665;51.786;21.594;2023-08-17T11:07:14;101766.30;;;31.98;59.45
50696;BME280;36665;51.786;21.594;2023-08-17T11:15:41;101497.29;;;31.43;59.42
50696;BME280;36665;51.786;21.594;2023-08-17T11:24:10;101279.95;;;30.99;59.15
50696;BME280;36665;51.786;21.594;2023-08-17T11:32:34;101184.95;;;30.80;59.23
50696;BME280;36665;51.786;21.594;2023-08-17T11:40:59;101166.67;;;30.77;59.04
50696;BME280;36665;51.786;21.594;2023-08-17T11:49:22;101141.08;;;30.73;58.79
50696;BME280;36665;51.786;21.594;2023-08-17T11:57:46;101046.84;;;30.55;58.74
50696;BME280;36665;51.786;21.594;2023-08-17T12:06:11;100926.52;;;30.31;58.58
50696;BME280;36665;51.786;21.594;2023-08-17T12:14:42;100868.60;;;30.18;58.52
50696;BME280;36665;51.786;21.594;2023-08-17T12:23:07;100822.98;;;30.10;58.58
50696;BME280;36665;51.786;21.594;2023-08-17T12:45:20;100885.14;;;30.28;58.21
50696;BME280;36665;51.786;21.594;2023-08-17T12:53:42;100888.73;;;30.28;58.18
50696;BME280;36665;51.786;21.594;2023-08-17T13:02:10;100870.39;;;30.24;58.23
50696;BME280;36665;51.786;21.594;2023-08-17T13:10:32;100839.60;;;30.19;58.01
50696;BME280;36665;51.786;21.594;2023-08-17T13:18:53;100847.50;;;30.22;58.08
50696;BME280;36665;51.786;21.594;2023-08-17T13:27:15;100878.31;;;30.30;57.84
50696;BME280;36665;51.786;21.594;2023-08-17T13:35:37;100951.04;;;30.45;57.89
50696;BME280;36665;51.786;21.594;2023-08-17T13:43:58;101161.45;;;30.91;57.81
50696;BME280;36665;51.786;21.594;2023-08-17T13:52:22;101365.33;;;31.35;57.75
50696;BME280;36665;51.786;21.594;2023-08-17T14:00:43;101560.51;;;31.77;57.63
50696;BME280;36665;51.786;21.594;2023-08-17T14:09:05;101634.95;;;31.92;57.58
50696;BME280;36665;51.786;21.594;2023-08-17T14:17:27;101530.74;;;31.71;57.68
50696;BME280;36665;51.786;21.594;2023-08-17T14:25:49;101377.98;;;31.41;57.52
50696;BME280;36665;51.786;21.594;2023-08-17T14:34:13;101241.34;;;31.13;57.44
50696;BME280;36665;51.786;21.594;2023-08-17T14:42:37;101132.77;;;30.91;57.25
50696;BME280;36665;51.786;21.594;2023-08-17T14:50:58;101043.51;;;30.72;57.24
50696;BME280;36665;51.786;21.594;2023-08-17T14:59:20;100946.08;;;30.53;57.05
50696;BME280;36665;51.786;21.594;2023-08-17T15:07:41;100849.23;;;30.34;57.04
50696;BME280;36665;51.786;21.594;2023-08-17T15:16:04;100770.80;;;30.18;56.79
50696;BME280;36665;51.786;21.594;2023-08-17T15:24:25;100713.20;;;30.06;56.78
50696;BME280;36665;51.786;21.594;2023-08-17T15:32:47;100666.91;;;29.98;56.76
50696;BME280;36665;51.786;21.594;2023-08-17T15:41:08;100620.30;;;29.88;56.58
50696;BME280;36665;51.786;21.594;2023-08-17T15:49:30;100573.27;;;29.79;56.60
50696;BME280;36665;51.786;21.594;2023-08-17T15:57:51;100549.91;;;29.75;56.57
50696;BME280;36665;51.786;21.594;2023-08-17T16:06:14;100474.27;;;29.59;56.56
50696;BME280;36665;51.786;21.594;2023-08-17T16:14:36;100375.54;;;29.39;56.29
50696;BME280;36665;51.786;21.594;2023-08-17T16:22:58;100284.31;;;29.20;56.23
50696;BME280;36665;51.786;21.594;2023-08-17T16:31:19;100199.67;;;29.02;56.14
50696;BME280;36665;51.786;21.594;2023-08-17T16:39:41;100083.87;;;28.78;56.34
50696;BME280;36665;51.786;21.594;2023-08-17T16:48:03;99948.84;;;28.48;56.07
50696;BME280;36665;51.786;21.594;2023-08-17T16:56:26;99817.85;;;28.19;56.01
50696;BME280;36665;51.786;21.594;2023-08-17T17:04:47;99697.80;;;27.93;56.00
50696;BME280;36665;51.786;21.594;2023-08-17T17:13:09;99563.83;;;27.64;55.92
50696;BME280;36665;51.786;21.594;2023-08-17T17:21:31;99442.36;;;27.37;55.79
50696;BME280;36665;51.786;21.594;2023-08-17T17:29:53;99314.27;;;27.10;55.76
50696;BME280;36665;51.786;21.594;2023-08-17T17:38:14;99178.30;;;26.79;55.59
50696;BME280;36665;51.786;21.594;2023-08-17T17:46:36;99030.37;;;26.46;55.59
50696;BME280;36665;51.786;21.594;2023-08-17T17:54:58;98880.14;;;26.12;55.65
50696;BME280;36665;51.786;21.594;2023-08-17T18:03:20;98725.70;;;25.76;55.35
50696;BME280;36665;51.786;21.594;2023-08-17T18:11:42;98584.93;;;25.44;55.38
50696;BME280;36665;51.786;21.594;2023-08-17T18:20:04;98458.26;;;25.17;55.47
50696;BME280;36665;51.786;21.594;2023-08-17T18:28:29;98339.17;;;24.88;55.38
50696;BME280;36665;51.786;21.594;2023-08-17T18:36:50;98225.15;;;24.63;55.28
50696;BME280;36665;51.786;21.594;2023-08-17T18:45:12;98082.52;;;24.29;55.22
50696;BME280;36665;51.786;21.594;2023-08-17T18:53:36;97983.05;;;24.06;55.26
50696;BME280;36665;51.786;21.594;2023-08-17T19:01:58;97888.14;;;23.83;55.20
50696;BME280;36665;51.786;21.594;2023-08-17T19:10:19;97807.08;;;23.65;55.23
50696;BME280;36665;51.786;21.594;2023-08-17T19:18:41;97775.31;;;23.56;55.09
50696;BME280;36665;51.786;21.594;2023-08-17T19:27:03;97738.16;;;23.49;55.26
50696;BME280;36665;51.786;21.594;2023-08-17T19:35:26;97718.79;;;23.45;55.20
50696;BME280;36665;51.786;21.594;2023-08-17T19:43:48;97677.58;;;23.34;55.28
50696;BME280;36665;51.786;21.594;2023-08-17T19:52:10;97634.85;;;23.25;55.16
50696;BME280;36665;51.786;21.594;2023-08-17T20:00:31;97588.55;;;23.14;55.21
50696;BME280;36665;51.786;21.594;2023-08-17T20:08:53;97532.16;;;23.00;55.03
50696;BME280;36665;51.786;21.594;2023-08-17T20:17:15;97453.64;;;22.81;55.20
50696;BME280;36665;51.786;21.594;2023-08-17T20:25:36;97398.27;;;22.68;55.18
50696;BME280;36665;51.786;21.594;2023-08-17T20:33:58;97361.00;;;22.60;55.22
50696;BME280;36665;51.786;21.594;2023-08-17T20:42:20;97346.94;;;22.56;55.34
50696;BME280;36665;51.786;21.594;2023-08-17T20:50:42;97334.05;;;22.53;55.22
50696;BME280;36665;51.786;21.594;2023-08-17T20:59:07;97318.41;;;22.50;55.35
50696;BME280;36665;51.786;21.594;2023-08-17T21:07:29;97301.61;;;22.45;55.36
50696;BME280;36665;51.786;21.594;2023-08-17T21:16:06;97275.88;;;22.38;55.41
50696;BME280;36665;51.786;21.594;2023-08-17T21:24:29;97241.45;;;22.31;55.38
50696;BME280;36665;51.786;21.594;2023-08-17T21:32:51;97209.14;;;22.22;55.51
50696;BME280;36665;51.786;21.594;2023-08-17T21:41:13;97186.17;;;22.18;55.54
50696;BME280;36665;51.786;21.594;2023-08-17T21:49:38;97155.01;;;22.09;55.61
50696;BME280;36665;51.786;21.594;2023-08-17T21:58:00;97132.01;;;22.04;55.46
50696;BME280;36665;51.786;21.594;2023-08-17T22:06:22;97135.21;;;22.04;55.66
50696;BME280;36665;51.786;21.594;2023-08-17T22:14:44;97112.09;;;21.99;55.48
50696;BME280;36665;51.786;21.594;2023-08-17T22:23:10;97091.25;;;21.93;55.69
50696;BME280;36665;51.786;21.594;2023-08-17T22:31:35;97063.73;;;21.86;55.66
50696;BME280;36665;51.786;21.594;2023-08-17T22:39:58;97025.23;;;21.77;55.78
50696;BME280;36665;51.786;21.594;2023-08-17T22:48:21;96994.31;;;21.69;55.75
50696;BME280;36665;51.786;21.594;2023-08-17T22:56:43;96959.55;;;21.59;55.89
50696;BME280;36665;51.786;21.594;2023-08-17T23:05:09;96927.36;;;21.52;55.70
50696;BME280;36665;51.786;21.594;2023-08-17T23:13:31;96883.95;;;21.41;55.71
50696;BME280;36665;51.786;21.594;2023-08-17T23:21:54;96816.03;;;21.23;55.87
50696;BME280;36665;51.786;21.594;2023-08-17T23:30:18;96784.25;;;21.15;56.01
50696;BME280;36665;51.786;21.594;2023-08-17T23:38:42;96751.66;;;21.08;55.86
50696;BME280;36665;51.786;21.594;2023-08-17T23:47:06;96724.00;;;21.00;56.04
50696;BME280;36665;51.786;21.594;2023-08-17T23:55:28;96677.67;;;20.90;56.07
